sensor_id;sensor_type;location;lat;lon;timestamp;P1;durP1;ratioP1;P2;durP2;ratioP2
48897;SDS011;34713;50.038;20.000;2022-08-21T00:01:59;20.02;;;10.32;;
48897;SDS011;34713;50.038;20.000;2022-08-21T00:04:25;15.85;;;10.45;;
48897;SDS011;34713;50.038;20.000;2022-08-21T00:06:51;16.27;;;10.13;;
48897;SDS011;34713;50.038;20.000;2022-08-21T00:09:18;17.75;;;10.38;;
48897;SDS011;34713;50.038;20.000;2022-08-21T00:11:45;15.72;;;10.60;;
48897;SDS011;34713;50.038;20.000;2022-08-21T00:14:13;18.23;;;10.63;;
48897;SDS011;34713;50.038;20.000;2022-08-21T00:16:39;14.80;;;9.53;;
48897;SDS011;34713;50.038;20.000;2022-08-21T00:19:06;17.05;;;9.55;;
48897;SDS011;34713;50.038;20.000;2022-08-21T00:21:34;14.20;;;9.68;;
48897;SDS011;34713;50.038;20.000;2022-08-21T00:24:00;18.15;;;9.48;;
48897;SDS011;34713;50.038;20.000;2022-08-21T00:26:26;13.50;;;9.00;;
48897;SDS011;34713;50.038;20.000;2022-08-21T00:28:52;15.75;;;9.45;;
48897;SDS011;34713;50.038;20.000;2022-08-21T00:31:18;14.45;;;10.18;;
48897;SDS011;34713;50.038;20.000;2022-08-21T00:33:44;14.25;;;9.50;;
48897;SDS011;34713;50.038;20.000;2022-08-21T00:36:11;21.02;;;10.58;;
48897;SDS011;34713;50.038;20.000;2022-08-21T00:38:38;17.85;;;9.38;;
48897;SDS011;34713;50.038;20.000;2022-08-21T00:41:05;14.43;;;9.70;;
48897;SDS011;34713;50.038;20.000;2022-08-21T00:43:34;13.22;;;10.60;;
48897;SDS011;34713;50.038;20.000;2022-08-21T00:46:03;16.00;;;10.30;;
48897;SDS011;34713;50.038;20.000;2022-08-21T00:48:30;13.62;;;9.10;;
48897;SDS011;34713;50.038;20.000;2022-08-21T00:51:00;13.88;;;9.80;;
48897;SDS011;34713;50.038;20.000;2022-08-21T00:53:29;13.95;;;9.18;;
48897;SDS011;34713;50.038;20.000;2022-08-21T00:55:56;14.87;;;9.95;;
48897;SDS011;34713;50.038;20.000;2022-08-21T00:58:23;14.70;;;10.53;;
48897;SDS011;34713;50.038;20.000;2022-08-21T01:00:52;12.63;;;9.63;;
48897;SDS011;34713;50.038;20.000;2022-08-21T01:03:20;11.35;;;10.03;;
48897;SDS011;34713;50.038;20.000;2022-08-21T01:05:49;16.48;;;9.50;;
48897;SDS011;34713;50.038;20.000;2022-08-21T01:08:17;15.58;;;9.40;;
48897;SDS011;34713;50.038;20.000;2022-08-21T01:10:43;15.88;;;10.00;;
48897;SDS011;34713;50.038;20.000;2022-08-21T01:13:12;16.77;;;10.30;;
48897;SDS011;34713;50.038;20.000;2022-08-21T01:15:42;14.43;;;10.05;;
48897;SDS011;34713;50.038;20.000;2022-08-21T01:18:11;13.18;;;9.15;;
48897;SDS011;34713;50.038;20.000;2022-08-21T01:20:42;15.35;;;10.32;;
48897;SDS011;34713;50.038;20.000;2022-08-21T01:23:11;13.68;;;9.53;;
48897;SDS011;34713;50.038;20.000;2022-08-21T01:25:37;12.80;;;9.25;;
48897;SDS011;34713;50.038;20.000;2022-08-21T01:28:06;14.75;;;9.75;;
48897;SDS011;34713;50.038;20.000;2022-08-21T01:30:35;12.63;;;9.45;;
48897;SDS011;34713;50.038;20.000;2022-08-21T01:33:03;15.60;;;10.00;;
48897;SDS011;34713;50.038;20.000;2022-08-21T01:35:29;13.60;;;9.70;;
48897;SDS011;34713;50.038;20.000;2022-08-21T01:37:55;13.70;;;9.28;;
48897;SDS011;34713;50.038;20.000;2022-08-21T01:40:21;12.78;;;10.35;;
48897;SDS011;34713;50.038;20.000;2022-08-21T01:42:47;15.32;;;10.55;;
48897;SDS011;34713;50.038;20.000;2022-08-21T01:45:14;12.60;;;9.55;;
48897;SDS011;34713;50.038;20.000;2022-08-21T01:47:41;12.78;;;10.85;;
48897;SDS011;34713;50.038;20.000;2022-08-21T01:50:09;15.45;;;10.65;;
48897;SDS011;34713;50.038;20.000;2022-08-21T01:52:39;16.45;;;11.28;;
48897;SDS011;34713;50.038;20.000;2022-08-21T01:55:07;15.58;;;11.60;;
48897;SDS011;34713;50.038;20.000;2022-08-21T01:57:35;14.58;;;10.35;;
48897;SDS011;34713;50.038;20.000;2022-08-21T02:00:03;15.25;;;11.38;;
48897;SDS011;34713;50.038;20.000;2022-08-21T02:02:31;19.52;;;11.00;;
48897;SDS011;34713;50.038;20.000;2022-08-21T02:04:57;16.12;;;10.60;;
48897;SDS011;34713;50.038;20.000;2022-08-21T02:07:23;13.32;;;11.12;;
48897;SDS011;34713;50.038;20.000;2022-08-21T02:09:49;15.72;;;11.78;;
48897;SDS011;34713;50.038;20.000;2022-08-21T02:12:14;13.53;;;11.22;;
48897;SDS011;34713;50.038;20.000;2022-08-21T02:14:40;15.48;;;12.23;;
48897;SDS011;34713;50.038;20.000;2022-08-21T02:17:06;16.85;;;11.60;;
48897;SDS011;34713;50.038;20.000;2022-08-21T02:19:31;17.65;;;12.63;;
48897;SDS011;34713;50.038;20.000;2022-08-21T02:21:57;18.35;;;12.95;;
48897;SDS011;34713;50.038;20.000;2022-08-21T02:24:23;18.95;;;12.20;;
48897;SDS011;34713;50.038;20.000;2022-08-21T02:26:49;15.03;;;11.15;;
48897;SDS011;34713;50.038;20.000;2022-08-21T02:29:14;20.05;;;12.95;;
48897;SDS011;34713;50.038;20.000;2022-08-21T02:31:40;17.37;;;11.57;;
48897;SDS011;34713;50.038;20.000;2022-08-21T02:34:06;16.55;;;10.93;;
48897;SDS011;34713;50.038;20.000;2022-08-21T02:36:32;18.52;;;11.75;;
48897;SDS011;34713;50.038;20.000;2022-08-21T02:38:58;16.90;;;11.63;;
48897;SDS011;34713;50.038;20.000;2022-08-21T02:41:24;16.77;;;11.20;;
48897;SDS011;34713;50.038;20.000;2022-08-21T02:43:49;15.18;;;11.73;;
48897;SDS011;34713;50.038;20.000;2022-08-21T02:46:16;18.73;;;11.95;;
48897;SDS011;34713;50.038;20.000;2022-08-21T02:48:45;19.50;;;11.33;;
48897;SDS011;34713;50.038;20.000;2022-08-21T02:51:12;16.17;;;11.60;;
48897;SDS011;34713;50.038;20.000;2022-08-21T02:53:43;15.55;;;11.85;;
48897;SDS011;34713;50.038;20.000;2022-08-21T02:56:11;14.75;;;11.50;;
48897;SDS011;34713;50.038;20.000;2022-08-21T02:58:41;17.00;;;12.45;;
48897;SDS011;34713;50.038;20.000;2022-08-21T03:01:10;18.45;;;11.88;;
48897;SDS011;34713;50.038;20.000;2022-08-21T03:03:38;18.70;;;12.68;;
48897;SDS011;34713;50.038;20.000;2022-08-21T03:06:07;22.20;;;12.90;;
48897;SDS011;34713;50.038;20.000;2022-08-21T03:08:34;15.45;;;12.03;;
48897;SDS011;34713;50.038;20.000;2022-08-21T03:11:00;20.00;;;12.68;;
48897;SDS011;34713;50.038;20.000;2022-08-21T03:13:27;18.05;;;12.20;;
48897;SDS011;34713;50.038;20.000;2022-08-21T03:15:53;18.25;;;12.80;;
48897;SDS011;34713;50.038;20.000;2022-08-21T03:18:19;17.73;;;12.20;;
48897;SDS011;34713;50.038;20.000;2022-08-21T03:20:45;17.35;;;12.10;;
48897;SDS011;34713;50.038;20.000;2022-08-21T03:23:12;20.48;;;12.80;;
48897;SDS011;34713;50.038;20.000;2022-08-21T03:25:39;16.75;;;12.03;;
48897;SDS011;34713;50.038;20.000;2022-08-21T03:28:05;16.32;;;12.40;;
48897;SDS011;34713;50.038;20.000;2022-08-21T03:30:37;16.35;;;12.37;;
48897;SDS011;34713;50.038;20.000;2022-08-21T03:33:03;19.90;;;12.00;;
48897;SDS011;34713;50.038;20.000;2022-08-21T03:35:29;17.00;;;11.20;;
48897;SDS011;34713;50.038;20.000;2022-08-21T03:37:55;16.73;;;12.58;;
48897;SDS011;34713;50.038;20.000;2022-08-21T03:40:22;16.77;;;12.30;;
48897;SDS011;34713;50.038;20.000;2022-08-21T03:42:50;16.62;;;12.63;;
48897;SDS011;34713;50.038;20.000;2022-08-21T03:45:17;16.37;;;12.23;;
48897;SDS011;34713;50.038;20.000;2022-08-21T03:47:59;20.60;;;13.13;;
48897;SDS011;34713;50.038;20.000;2022-08-21T03:50:25;17.23;;;12.15;;
48897;SDS011;34713;50.038;20.000;2022-08-21T03:52:55;14.73;;;12.58;;
48897;SDS011;34713;50.038;20.000;2022-08-21T03:55:21;19.00;;;12.82;;
48897;SDS011;34713;50.038;20.000;2022-08-21T03:57:48;16.77;;;11.75;;
48897;SDS011;34713;50.038;20.000;2022-08-21T04:00:14;19.90;;;12.95;;
48897;SDS011;34713;50.038;20.000;2022-08-21T04:02:42;17.40;;;12.88;;
48897;SDS011;34713;50.038;20.000;2022-08-21T04:05:09;16.97;;;11.83;;
48897;SDS011;34713;50.038;20.000;2022-08-21T04:07:36;16.87;;;12.10;;
48897;SDS011;34713;50.038;20.000;2022-08-21T04:10:02;20.45;;;11.83;;
48897;SDS011;34713;50.038;20.000;2022-08-21T04:12:30;17.15;;;12.28;;
48897;SDS011;34713;50.038;20.000;2022-08-21T04:14:55;15.90;;;11.35;;
48897;SDS011;34713;50.038;20.000;2022-08-21T04:17:21;19.10;;;12.37;;
48897;SDS011;34713;50.038;20.000;2022-08-21T04:19:47;14.38;;;11.55;;
48897;SDS011;34713;50.038;20.000;2022-08-21T04:22:14;17.73;;;12.03;;
48897;SDS011;34713;50.038;20.000;2022-08-21T04:24:41;21.25;;;12.33;;
48897;SDS011;34713;50.038;20.000;2022-08-21T04:27:07;17.60;;;11.85;;
48897;SDS011;34713;50.038;20.000;2022-08-21T04:29:33;16.17;;;11.53;;
48897;SDS011;34713;50.038;20.000;2022-08-21T04:32:01;17.37;;;11.60;;
48897;SDS011;34713;50.038;20.000;2022-08-21T04:34:27;17.02;;;12.55;;
48897;SDS011;34713;50.038;20.000;2022-08-21T04:36:52;15.72;;;11.97;;
48897;SDS011;34713;50.038;20.000;2022-08-21T04:39:18;15.63;;;11.45;;
48897;SDS011;34713;50.038;20.000;2022-08-21T04:41:44;18.85;;;12.65;;
48897;SDS011;34713;50.038;20.000;2022-08-21T04:44:10;17.98;;;11.08;;
48897;SDS011;34713;50.038;20.000;2022-08-21T04:46:35;14.68;;;11.60;;
48897;SDS011;34713;50.038;20.000;2022-08-21T04:49:01;14.43;;;11.20;;
48897;SDS011;34713;50.038;20.000;2022-08-21T04:51:28;16.40;;;11.80;;
48897;SDS011;34713;50.038;20.000;2022-08-21T04:54:02;18.20;;;12.95;;
48897;SDS011;34713;50.038;20.000;2022-08-21T04:59:31;17.23;;;12.23;;
48897;SDS011;34713;50.038;20.000;2022-08-21T05:02:05;21.20;;;12.25;;
48897;SDS011;34713;50.038;20.000;2022-08-21T05:04:33;18.02;;;11.95;;
48897;SDS011;34713;50.038;20.000;2022-08-21T05:07:02;16.48;;;11.90;;
48897;SDS011;34713;50.038;20.000;2022-08-21T05:09:31;15.72;;;10.93;;
48897;SDS011;34713;50.038;20.000;2022-08-21T05:12:00;18.30;;;11.83;;
48897;SDS011;34713;50.038;20.000;2022-08-21T05:14:27;13.45;;;10.38;;
48897;SDS011;34713;50.038;20.000;2022-08-21T05:16:53;17.92;;;12.20;;
48897;SDS011;34713;50.038;20.000;2022-08-21T05:19:19;18.02;;;12.07;;
48897;SDS011;34713;50.038;20.000;2022-08-21T05:21:45;15.75;;;11.08;;
48897;SDS011;34713;50.038;20.000;2022-08-21T05:24:13;16.85;;;12.65;;
48897;SDS011;34713;50.038;20.000;2022-08-21T05:26:40;14.28;;;12.13;;
48897;SDS011;34713;50.038;20.000;2022-08-21T05:29:07;17.80;;;12.15;;
48897;SDS011;34713;50.038;20.000;2022-08-21T05:31:33;17.25;;;12.90;;
48897;SDS011;34713;50.038;20.000;2022-08-21T05:33:59;18.35;;;12.75;;
48897;SDS011;34713;50.038;20.000;2022-08-21T05:36:25;19.95;;;13.32;;
48897;SDS011;34713;50.038;20.000;2022-08-21T05:38:50;17.62;;;12.25;;
48897;SDS011;34713;50.038;20.000;2022-08-21T05:41:16;17.07;;;13.13;;
48897;SDS011;34713;50.038;20.000;2022-08-21T05:43:42;19.85;;;14.25;;
48897;SDS011;34713;50.038;20.000;2022-08-21T05:46:08;18.65;;;12.63;;
48897;SDS011;34713;50.038;20.000;2022-08-21T05:48:34;16.67;;;11.85;;
48897;SDS011;34713;50.038;20.000;2022-08-21T05:51:05;25.80;;;13.10;;
48897;SDS011;34713;50.038;20.000;2022-08-21T05:53:35;25.40;;;15.43;;
48897;SDS011;34713;50.038;20.000;2022-08-21T05:56:02;18.73;;;13.95;;
48897;SDS011;34713;50.038;20.000;2022-08-21T05:58:30;16.12;;;11.90;;
48897;SDS011;34713;50.038;20.000;2022-08-21T06:00:58;24.95;;;13.80;;
48897;SDS011;34713;50.038;20.000;2022-08-21T06:03:28;19.37;;;14.38;;
48897;SDS011;34713;50.038;20.000;2022-08-21T06:05:56;20.82;;;13.15;;
48897;SDS011;34713;50.038;20.000;2022-08-21T06:08:23;21.10;;;13.93;;
48897;SDS011;34713;50.038;20.000;2022-08-21T06:10:50;21.97;;;15.53;;
48897;SDS011;34713;50.038;20.000;2022-08-21T06:13:18;22.05;;;14.60;;
48897;SDS011;34713;50.038;20.000;2022-08-21T06:15:44;19.17;;;13.88;;
48897;SDS011;34713;50.038;20.000;2022-08-21T06:18:10;18.95;;;15.20;;
48897;SDS011;34713;50.038;20.000;2022-08-21T06:20:37;22.77;;;14.38;;
48897;SDS011;34713;50.038;20.000;2022-08-21T06:23:04;25.30;;;15.43;;
48897;SDS011;34713;50.038;20.000;2022-08-21T06:25:30;20.32;;;14.10;;
48897;SDS011;34713;50.038;20.000;2022-08-21T06:28:07;24.95;;;16.12;;
48897;SDS011;34713;50.038;20.000;2022-08-21T06:30:34;20.82;;;15.28;;
48897;SDS011;34713;50.038;20.000;2022-08-21T06:33:02;21.77;;;14.65;;
48897;SDS011;34713;50.038;20.000;2022-08-21T06:35:29;21.85;;;14.98;;
48897;SDS011;34713;50.038;20.000;2022-08-21T06:37:56;18.95;;;15.00;;
48897;SDS011;34713;50.038;20.000;2022-08-21T06:40:22;26.90;;;15.48;;
48897;SDS011;34713;50.038;20.000;2022-08-21T06:42:49;20.05;;;14.50;;
48897;SDS011;34713;50.038;20.000;2022-08-21T06:45:15;24.85;;;15.13;;
48897;SDS011;34713;50.038;20.000;2022-08-21T06:47:41;18.98;;;13.90;;
48897;SDS011;34713;50.038;20.000;2022-08-21T06:50:07;23.67;;;15.60;;
48897;SDS011;34713;50.038;20.000;2022-08-21T06:52:34;22.55;;;15.48;;
48897;SDS011;34713;50.038;20.000;2022-08-21T06:55:02;19.80;;;15.48;;
48897;SDS011;34713;50.038;20.000;2022-08-21T06:57:32;19.65;;;14.65;;
48897;SDS011;34713;50.038;20.000;2022-08-21T06:59:58;18.85;;;14.78;;
48897;SDS011;34713;50.038;20.000;2022-08-21T07:02:24;23.65;;;15.95;;
48897;SDS011;34713;50.038;20.000;2022-08-21T07:04:50;20.32;;;14.83;;
48897;SDS011;34713;50.038;20.000;2022-08-21T07:07:16;18.77;;;14.35;;
48897;SDS011;34713;50.038;20.000;2022-08-21T07:09:42;21.37;;;14.73;;
48897;SDS011;34713;50.038;20.000;2022-08-21T07:12:08;22.90;;;15.03;;
48897;SDS011;34713;50.038;20.000;2022-08-21T07:14:35;21.23;;;14.65;;
48897;SDS011;34713;50.038;20.000;2022-08-21T07:17:01;17.12;;;13.32;;
48897;SDS011;34713;50.038;20.000;2022-08-21T07:19:27;21.42;;;15.50;;
48897;SDS011;34713;50.038;20.000;2022-08-21T07:21:57;22.45;;;15.90;;
48897;SDS011;34713;50.038;20.000;2022-08-21T07:24:26;41.60;;;25.02;;
48897;SDS011;34713;50.038;20.000;2022-08-21T07:26:52;33.50;;;22.37;;
48897;SDS011;34713;50.038;20.000;2022-08-21T07:29:18;43.28;;;27.37;;
48897;SDS011;34713;50.038;20.000;2022-08-21T07:31:44;44.23;;;29.90;;
48897;SDS011;34713;50.038;20.000;2022-08-21T07:34:10;30.10;;;19.92;;
48897;SDS011;34713;50.038;20.000;2022-08-21T07:36:36;43.55;;;27.13;;
48897;SDS011;34713;50.038;20.000;2022-08-21T07:39:02;29.55;;;21.70;;
48897;SDS011;34713;50.038;20.000;2022-08-21T07:41:28;23.57;;;17.00;;
48897;SDS011;34713;50.038;20.000;2022-08-21T07:43:56;23.47;;;14.68;;
48897;SDS011;34713;50.038;20.000;2022-08-21T07:46:23;23.60;;;15.78;;
48897;SDS011;34713;50.038;20.000;2022-08-21T07:48:50;20.35;;;15.83;;
48897;SDS011;34713;50.038;20.000;2022-08-21T07:51:18;19.45;;;14.40;;
48897;SDS011;34713;50.038;20.000;2022-08-21T07:53:47;19.98;;;14.75;;
48897;SDS011;34713;50.038;20.000;2022-08-21T07:56:15;20.92;;;14.98;;
48897;SDS011;34713;50.038;20.000;2022-08-21T07:58:41;20.92;;;14.20;;
48897;SDS011;34713;50.038;20.000;2022-08-21T08:01:07;20.70;;;13.98;;
48897;SDS011;34713;50.038;20.000;2022-08-21T08:03:33;22.67;;;14.68;;
48897;SDS011;34713;50.038;20.000;2022-08-21T08:05:59;18.87;;;14.20;;
48897;SDS011;34713;50.038;20.000;2022-08-21T08:08:24;23.32;;;14.93;;
48897;SDS011;34713;50.038;20.000;2022-08-21T08:10:51;18.90;;;12.95;;
48897;SDS011;34713;50.038;20.000;2022-08-21T08:13:18;17.55;;;13.70;;
48897;SDS011;34713;50.038;20.000;2022-08-21T08:15:44;20.32;;;14.28;;
48897;SDS011;34713;50.038;20.000;2022-08-21T08:18:10;19.60;;;13.58;;
48897;SDS011;34713;50.038;20.000;2022-08-21T08:20:36;16.93;;;13.80;;
48897;SDS011;34713;50.038;20.000;2022-08-21T08:23:01;21.25;;;15.43;;
48897;SDS011;34713;50.038;20.000;2022-08-21T08:25:27;21.85;;;14.65;;
48897;SDS011;34713;50.038;20.000;2022-08-21T08:27:53;19.80;;;15.68;;
48897;SDS011;34713;50.038;20.000;2022-08-21T08:30:19;22.32;;;15.35;;
48897;SDS011;34713;50.038;20.000;2022-08-21T08:32:47;18.75;;;15.15;;
48897;SDS011;34713;50.038;20.000;2022-08-21T08:35:13;21.05;;;14.43;;
48897;SDS011;34713;50.038;20.000;2022-08-21T08:37:40;19.50;;;13.93;;
48897;SDS011;34713;50.038;20.000;2022-08-21T08:42:41;16.23;;;13.35;;
48897;SDS011;34713;50.038;20.000;2022-08-21T08:45:16;21.12;;;14.30;;
48897;SDS011;34713;50.038;20.000;2022-08-21T08:47:45;21.12;;;15.35;;
48897;SDS011;34713;50.038;20.000;2022-08-21T08:50:17;19.85;;;13.68;;
48897;SDS011;34713;50.038;20.000;2022-08-21T08:53:03;17.42;;;14.40;;
48897;SDS011;34713;50.038;20.000;2022-08-21T08:55:35;20.48;;;14.55;;
48897;SDS011;34713;50.038;20.000;2022-08-21T08:58:06;19.77;;;14.95;;
48897;SDS011;34713;50.038;20.000;2022-08-21T09:00:34;18.37;;;13.48;;
48897;SDS011;34713;50.038;20.000;2022-08-21T09:03:01;17.07;;;13.72;;
48897;SDS011;34713;50.038;20.000;2022-08-21T09:05:29;18.30;;;13.28;;
48897;SDS011;34713;50.038;20.000;2022-08-21T09:17:18;17.62;;;12.50;;
48897;SDS011;34713;50.038;20.000;2022-08-21T09:25:25;17.40;;;13.30;;
48897;SDS011;34713;50.038;20.000;2022-08-21T09:27:54;14.58;;;12.33;;
48897;SDS011;34713;50.038;20.000;2022-08-21T09:30:23;18.55;;;13.68;;
48897;SDS011;34713;50.038;20.000;2022-08-21T09:32:54;17.95;;;12.73;;
48897;SDS011;34713;50.038;20.000;2022-08-21T09:35:21;17.65;;;12.43;;
48897;SDS011;34713;50.038;20.000;2022-08-21T09:38:00;21.35;;;15.00;;
48897;SDS011;34713;50.038;20.000;2022-08-21T09:45:46;16.70;;;13.03;;
48897;SDS011;34713;50.038;20.000;2022-08-21T09:50:50;17.42;;;13.30;;
48897;SDS011;34713;50.038;20.000;2022-08-21T09:53:22;15.50;;;12.65;;
48897;SDS011;34713;50.038;20.000;2022-08-21T09:55:59;23.25;;;12.93;;
48897;SDS011;34713;50.038;20.000;2022-08-21T09:58:47;18.67;;;13.28;;
48897;SDS011;34713;50.038;20.000;2022-08-21T10:01:18;13.22;;;11.88;;
48897;SDS011;34713;50.038;20.000;2022-08-21T10:03:49;15.95;;;12.25;;
48897;SDS011;34713;50.038;20.000;2022-08-21T10:06:27;20.90;;;12.25;;
48897;SDS011;34713;50.038;20.000;2022-08-21T10:09:13;15.40;;;12.53;;
48897;SDS011;34713;50.038;20.000;2022-08-21T10:11:49;17.32;;;12.75;;
48897;SDS011;34713;50.038;20.000;2022-08-21T10:17:06;13.08;;;11.68;;
48897;SDS011;34713;50.038;20.000;2022-08-21T10:25:12;17.57;;;13.10;;
48897;SDS011;34713;50.038;20.000;2022-08-21T10:27:48;18.73;;;12.53;;
48897;SDS011;34713;50.038;20.000;2022-08-21T10:35:53;16.85;;;13.30;;
48897;SDS011;34713;50.038;20.000;2022-08-21T10:38:42;16.32;;;12.55;;
48897;SDS011;34713;50.038;20.000;2022-08-21T10:47:06;16.87;;;13.72;;
48897;SDS011;34713;50.038;20.000;2022-08-21T10:58:55;19.32;;;15.18;;
48897;SDS011;34713;50.038;20.000;2022-08-21T11:04:23;18.45;;;13.48;;
48897;SDS011;34713;50.038;20.000;2022-08-21T11:07:06;14.63;;;11.15;;
48897;SDS011;34713;50.038;20.000;2022-08-21T11:09:35;12.82;;;8.38;;
48897;SDS011;34713;50.038;20.000;2022-08-21T11:12:03;10.43;;;6.33;;
48897;SDS011;34713;50.038;20.000;2022-08-21T11:22:56;5.62;;;4.05;;
48897;SDS011;34713;50.038;20.000;2022-08-21T11:25:30;7.22;;;3.85;;
48897;SDS011;34713;50.038;20.000;2022-08-21T11:28:13;6.08;;;3.40;;
48897;SDS011;34713;50.038;20.000;2022-08-21T11:30:51;6.62;;;3.52;;
48897;SDS011;34713;50.038;20.000;2022-08-21T11:33:31;7.50;;;3.92;;
48897;SDS011;34713;50.038;20.000;2022-08-21T11:36:33;5.25;;;2.80;;
48897;SDS011;34713;50.038;20.000;2022-08-21T11:45:14;7.87;;;3.10;;
48897;SDS011;34713;50.038;20.000;2022-08-21T11:51:04;4.30;;;2.05;;
48897;SDS011;34713;50.038;20.000;2022-08-21T11:53:33;3.58;;;2.00;;
48897;SDS011;34713;50.038;20.000;2022-08-21T11:58:40;3.80;;;1.98;;
48897;SDS011;34713;50.038;20.000;2022-08-21T12:06:31;3.65;;;2.00;;
48897;SDS011;34713;50.038;20.000;2022-08-21T12:09:05;3.92;;;1.70;;
48897;SDS011;34713;50.038;20.000;2022-08-21T12:11:48;6.42;;;1.80;;
48897;SDS011;34713;50.038;20.000;2022-08-21T12:14:44;2.45;;;1.57;;
48897;SDS011;34713;50.038;20.000;2022-08-21T12:17:20;1.82;;;1.32;;
48897;SDS011;34713;50.038;20.000;2022-08-21T12:20:00;4.72;;;1.80;;
48897;SDS011;34713;50.038;20.000;2022-08-21T12:22:40;2.52;;;1.27;;
48897;SDS011;34713;50.038;20.000;2022-08-21T12:25:06;3.08;;;1.40;;
48897;SDS011;34713;50.038;20.000;2022-08-21T12:30:21;2.67;;;1.47;;
48897;SDS011;34713;50.038;20.000;2022-08-21T12:32:58;2.58;;;1.25;;
48897;SDS011;34713;50.038;20.000;2022-08-21T12:35:32;4.12;;;1.42;;
48897;SDS011;34713;50.038;20.000;2022-08-21T12:43:27;3.10;;;1.42;;
48897;SDS011;34713;50.038;20.000;2022-08-21T12:51:26;3.42;;;2.00;;
48897;SDS011;34713;50.038;20.000;2022-08-21T12:53:57;3.05;;;1.57;;
48897;SDS011;34713;50.038;20.000;2022-08-21T12:56:26;2.75;;;1.42;;
48897;SDS011;34713;50.038;20.000;2022-08-21T13:01:36;2.42;;;1.30;;
48897;SDS011;34713;50.038;20.000;2022-08-21T13:04:12;4.80;;;1.80;;
48897;SDS011;34713;50.038;20.000;2022-08-21T13:06:40;5.80;;;1.92;;
48897;SDS011;34713;50.038;20.000;2022-08-21T13:09:10;3.08;;;1.72;;
48897;SDS011;34713;50.038;20.000;2022-08-21T13:11:40;3.60;;;2.10;;
48897;SDS011;34713;50.038;20.000;2022-08-21T13:14:29;2.60;;;1.62;;
48897;SDS011;34713;50.038;20.000;2022-08-21T13:16:59;3.02;;;1.70;;
48897;SDS011;34713;50.038;20.000;2022-08-21T13:19:27;3.52;;;1.70;;
48897;SDS011;34713;50.038;20.000;2022-08-21T13:21:54;3.27;;;1.67;;
48897;SDS011;34713;50.038;20.000;2022-08-21T13:24:32;2.72;;;1.45;;
48897;SDS011;34713;50.038;20.000;2022-08-21T13:27:03;3.05;;;1.75;;
48897;SDS011;34713;50.038;20.000;2022-08-21T13:29:32;3.62;;;2.25;;
48897;SDS011;34713;50.038;20.000;2022-08-21T13:32:02;2.85;;;1.60;;
48897;SDS011;34713;50.038;20.000;2022-08-21T13:34:36;3.70;;;2.00;;
48897;SDS011;34713;50.038;20.000;2022-08-21T13:37:04;3.65;;;1.40;;
48897;SDS011;34713;50.038;20.000;2022-08-21T13:39:33;5.08;;;1.62;;
48897;SDS011;34713;50.038;20.000;2022-08-21T13:42:00;3.00;;;1.80;;
48897;SDS011;34713;50.038;20.000;2022-08-21T13:47:04;3.65;;;2.12;;
48897;SDS011;34713;50.038;20.000;2022-08-21T13:49:32;3.22;;;2.00;;
48897;SDS011;34713;50.038;20.000;2022-08-21T13:52:02;3.05;;;1.77;;
48897;SDS011;34713;50.038;20.000;2022-08-21T13:54:37;2.08;;;1.57;;
48897;SDS011;34713;50.038;20.000;2022-08-21T13:57:15;2.85;;;1.80;;
48897;SDS011;34713;50.038;20.000;2022-08-21T13:59:47;2.02;;;1.70;;
48897;SDS011;34713;50.038;20.000;2022-08-21T14:02:14;3.27;;;1.75;;
48897;SDS011;34713;50.038;20.000;2022-08-21T14:05:00;3.80;;;2.20;;
48897;SDS011;34713;50.038;20.000;2022-08-21T14:07:35;4.67;;;2.52;;
48897;SDS011;34713;50.038;20.000;2022-08-21T14:10:05;3.47;;;2.20;;
48897;SDS011;34713;50.038;20.000;2022-08-21T14:12:48;2.87;;;2.15;;
48897;SDS011;34713;50.038;20.000;2022-08-21T14:15:19;4.72;;;2.30;;
48897;SDS011;34713;50.038;20.000;2022-08-21T14:17:54;2.20;;;2.00;;
48897;SDS011;34713;50.038;20.000;2022-08-21T14:20:33;3.05;;;2.17;;
48897;SDS011;34713;50.038;20.000;2022-08-21T14:23:01;4.12;;;2.05;;
48897;SDS011;34713;50.038;20.000;2022-08-21T14:25:29;3.22;;;2.52;;
48897;SDS011;34713;50.038;20.000;2022-08-21T14:28:11;2.80;;;2.10;;
48897;SDS011;34713;50.038;20.000;2022-08-21T14:30:48;3.25;;;1.95;;
48897;SDS011;34713;50.038;20.000;2022-08-21T14:33:31;2.90;;;2.00;;
48897;SDS011;34713;50.038;20.000;2022-08-21T14:35:57;4.05;;;2.00;;
48897;SDS011;34713;50.038;20.000;2022-08-21T14:38:24;2.45;;;1.90;;
48897;SDS011;34713;50.038;20.000;2022-08-21T14:40:53;5.20;;;2.05;;
48897;SDS011;34713;50.038;20.000;2022-08-21T14:45:53;2.10;;;1.50;;
48897;SDS011;34713;50.038;20.000;2022-08-21T14:48:19;1.92;;;1.57;;
48897;SDS011;34713;50.038;20.000;2022-08-21T14:50:45;5.03;;;1.75;;
48897;SDS011;34713;50.038;20.000;2022-08-21T14:53:12;2.60;;;1.80;;
48897;SDS011;34713;50.038;20.000;2022-08-21T14:55:38;1.82;;;1.55;;
48897;SDS011;34713;50.038;20.000;2022-08-21T14:58:23;4.30;;;1.80;;
48897;SDS011;34713;50.038;20.000;2022-08-21T15:00:51;2.83;;;1.60;;
48897;SDS011;34713;50.038;20.000;2022-08-21T15:03:19;3.52;;;1.80;;
48897;SDS011;34713;50.038;20.000;2022-08-21T15:05:47;1.62;;;1.32;;
48897;SDS011;34713;50.038;20.000;2022-08-21T15:08:14;1.80;;;1.22;;
48897;SDS011;34713;50.038;20.000;2022-08-21T15:10:40;2.55;;;1.50;;
48897;SDS011;34713;50.038;20.000;2022-08-21T15:13:05;1.22;;;1.05;;
48897;SDS011;34713;50.038;20.000;2022-08-21T15:15:34;1.70;;;1.27;;
48897;SDS011;34713;50.038;20.000;2022-08-21T15:18:05;1.98;;;1.27;;
48897;SDS011;34713;50.038;20.000;2022-08-21T15:20:32;3.27;;;1.10;;
48897;SDS011;34713;50.038;20.000;2022-08-21T15:22:58;1.35;;;1.00;;
48897;SDS011;34713;50.038;20.000;2022-08-21T15:25:24;1.70;;;1.00;;
48897;SDS011;34713;50.038;20.000;2022-08-21T15:27:50;2.65;;;1.20;;
48897;SDS011;34713;50.038;20.000;2022-08-21T15:30:16;1.30;;;1.10;;
48897;SDS011;34713;50.038;20.000;2022-08-21T15:32:42;1.07;;;0.98;;
48897;SDS011;34713;50.038;20.000;2022-08-21T15:35:08;2.62;;;1.20;;
48897;SDS011;34713;50.038;20.000;2022-08-21T15:37:35;3.10;;;1.80;;
48897;SDS011;34713;50.038;20.000;2022-08-21T15:40:01;2.35;;;1.70;;
48897;SDS011;34713;50.038;20.000;2022-08-21T15:42:30;3.12;;;1.98;;
48897;SDS011;34713;50.038;20.000;2022-08-21T15:44:56;4.95;;;1.85;;
48897;SDS011;34713;50.038;20.000;2022-08-21T15:47:28;2.65;;;2.40;;
48897;SDS011;34713;50.038;20.000;2022-08-21T15:49:57;3.95;;;2.62;;
48897;SDS011;34713;50.038;20.000;2022-08-21T15:52:23;3.62;;;2.75;;
48897;SDS011;34713;50.038;20.000;2022-08-21T15:54:49;3.60;;;2.62;;
48897;SDS011;34713;50.038;20.000;2022-08-21T15:57:16;4.28;;;2.92;;
48897;SDS011;34713;50.038;20.000;2022-08-21T15:59:46;5.53;;;2.98;;
48897;SDS011;34713;50.038;20.000;2022-08-21T16:02:21;5.90;;;3.10;;
48897;SDS011;34713;50.038;20.000;2022-08-21T16:04:53;9.83;;;4.10;;
48897;SDS011;34713;50.038;20.000;2022-08-21T16:07:19;4.97;;;3.45;;
48897;SDS011;34713;50.038;20.000;2022-08-21T16:09:45;5.97;;;3.20;;
48897;SDS011;34713;50.038;20.000;2022-08-21T16:12:13;8.43;;;4.58;;
48897;SDS011;34713;50.038;20.000;2022-08-21T16:14:42;9.10;;;5.40;;